New Plymouth, Idaho
Current Conditions -  °F | °C
As of 10:53 AM on Tuesday 21 Oct 2014 (Local Time) from KONO Reporting Station
Clear Clear  
Wind Chill: 53°   Ceiling: Unl
Heat Index: 53°   Visibility: 10mi
Dew Point: 48°   Wind: 5mph
Humidity: 83%   Direction: 210°SSW
Pressure: 30.01"   Gusts: NA
Location:  43.97°N, 116.82°W
Report Text: KONO 211653Z AUTO 21004KT 10SM CLR 12/09 A3001 RMK AO2 SLP163 T01170089
Loading
Personal Weather Stations






























Interactive Weather Map New forecast layout! Learn more

10-Day Weather Forecast

Advertisements
Track Severe Weather on mobile